createdAt,value
2019-03-13T00:01:03.457Z,5.70
2019-03-13T00:03:32.840Z,5.70
2019-03-13T00:06:02.140Z,5.60
2019-03-13T00:08:31.493Z,5.60
2019-03-13T00:11:00.830Z,5.60
2019-03-13T00:13:30.208Z,5.50
2019-03-13T00:15:59.543Z,5.60
2019-03-13T00:18:29.005Z,5.60
2019-03-13T00:20:58.357Z,5.60
2019-03-13T00:23:27.681Z,5.60
2019-03-13T00:25:57.042Z,5.60
2019-03-13T00:28:26.427Z,5.60
2019-03-13T00:30:55.840Z,5.60
2019-03-13T00:33:25.212Z,5.60
2019-03-13T00:39:05.070Z,5.60
2019-03-13T00:41:35.244Z,5.60
2019-03-13T00:44:06.360Z,5.60
2019-03-13T00:46:39.973Z,5.70
2019-03-13T00:49:09.738Z,5.70
2019-03-13T00:51:40.887Z,5.70
2019-03-13T00:54:11.639Z,5.70
2019-03-13T00:56:41.218Z,5.70
2019-03-13T00:59:10.825Z,5.70
2019-03-13T01:02:17.529Z,5.70
2019-03-13T01:05:12.527Z,5.70
2019-03-13T01:07:42.327Z,5.60
2019-03-13T01:10:11.909Z,5.60
2019-03-13T01:12:41.372Z,5.50
2019-03-13T01:18:07.831Z,5.50
2019-03-13T01:20:38.792Z,5.40
2019-03-13T01:23:10.394Z,5.40
2019-03-13T01:25:40.256Z,5.40
2019-03-13T01:28:09.774Z,5.50
2019-03-13T01:31:03.396Z,5.50
2019-03-13T01:33:32.942Z,5.50
2019-03-13T01:36:03.895Z,5.40
2019-03-13T01:38:34.213Z,5.40
2019-03-13T01:41:03.832Z,5.40
2019-03-13T01:43:33.629Z,5.40
2019-03-13T01:46:03.055Z,5.40
2019-03-13T01:48:33.401Z,5.30
2019-03-13T01:51:04.723Z,5.30
2019-03-13T01:53:34.165Z,5.30
2019-03-13T01:56:03.648Z,5.30
2019-03-13T01:58:33.542Z,5.30
2019-03-13T02:01:03.328Z,5.30
2019-03-13T02:03:35.552Z,5.30
2019-03-13T02:06:06.410Z,5.30
2019-03-13T02:08:35.972Z,5.20
2019-03-13T02:11:06.194Z,5.20
2019-03-13T02:13:37.880Z,5.20
2019-03-13T02:16:07.636Z,5.20
2019-03-13T02:18:37.517Z,5.20
2019-03-13T02:21:08.709Z,5.20
2019-03-13T02:23:40.971Z,5.20
2019-03-13T02:26:10.449Z,5.20
2019-03-13T02:28:40.164Z,5.20
2019-03-13T02:31:09.972Z,5.20
2019-03-13T02:33:39.592Z,5.20
2019-03-13T02:36:11.005Z,5.20
2019-03-13T02:38:40.535Z,5.20
2019-03-13T02:41:10.625Z,5.20
2019-03-13T02:43:40.997Z,5.20
2019-03-13T02:46:10.587Z,5.20
2019-03-13T02:48:40.076Z,5.20
2019-03-13T02:51:09.543Z,5.20
2019-03-13T02:53:39.369Z,5.20
2019-03-13T02:56:08.878Z,5.20
2019-03-13T02:58:38.646Z,5.20
2019-03-13T03:01:22.349Z,5.20
2019-03-13T03:03:54.283Z,5.20
2019-03-13T03:06:23.725Z,5.30
2019-03-13T03:08:53.206Z,5.40
2019-03-13T03:11:27.545Z,5.40
2019-03-13T03:13:57.069Z,5.40
2019-03-13T03:16:27.650Z,5.50
2019-03-13T03:18:57.377Z,5.60
2019-03-13T03:21:27.537Z,5.60
2019-03-13T03:23:57.097Z,5.70
2019-03-13T03:26:26.793Z,5.70
2019-03-13T03:28:56.346Z,5.70
2019-03-13T03:31:26.945Z,5.70
2019-03-13T03:34:04.615Z,5.80
2019-03-13T03:36:34.543Z,5.80
2019-03-13T03:39:05.530Z,5.80
2019-03-13T03:41:36.773Z,5.90
2019-03-13T03:44:06.323Z,5.90
2019-03-13T03:49:41.352Z,5.90
2019-03-13T03:52:11.746Z,6.00
2019-03-13T03:54:41.154Z,6.00
2019-03-13T03:57:10.633Z,6.00
2019-03-13T04:02:37.420Z,6.00
2019-03-13T04:05:08.194Z,6.00
2019-03-13T04:07:39.057Z,6.00
2019-03-13T04:10:08.822Z,6.00
2019-03-13T04:12:38.963Z,6.00
2019-03-13T04:15:08.573Z,6.00
2019-03-13T04:17:37.969Z,6.10
2019-03-13T04:20:07.686Z,6.10
2019-03-13T04:25:38.130Z,6.10
2019-03-13T04:28:08.292Z,6.10
2019-03-13T04:30:38.067Z,6.20
2019-03-13T04:33:07.741Z,6.20
2019-03-13T04:35:37.115Z,6.20
2019-03-13T04:38:06.510Z,6.20
2019-03-13T04:40:35.899Z,6.30
2019-03-13T04:43:05.295Z,6.30
2019-03-13T04:45:35.037Z,6.30
2019-03-13T04:48:04.533Z,6.30
2019-03-13T04:50:33.972Z,6.30
2019-03-13T04:53:03.841Z,6.30
2019-03-13T04:55:33.394Z,6.30
2019-03-13T04:58:02.950Z,6.30
2019-03-13T05:00:32.400Z,6.30
2019-03-13T05:03:01.646Z,6.30
2019-03-13T05:05:49.673Z,6.30
2019-03-13T05:08:58.096Z,6.40
2019-03-13T05:11:27.545Z,6.40
2019-03-13T05:13:58.287Z,6.30
2019-03-13T05:16:27.657Z,6.40
2019-03-13T05:18:59.928Z,6.40
2019-03-13T05:21:29.349Z,6.40
2019-03-13T05:23:58.825Z,6.40
2019-03-13T05:29:27.943Z,6.40
2019-03-13T05:31:57.757Z,6.50
2019-03-13T05:34:27.262Z,6.50
2019-03-13T05:36:56.655Z,6.50
2019-03-13T05:39:26.074Z,6.40
2019-03-13T05:41:58.355Z,6.40
2019-03-13T05:44:27.923Z,6.40
2019-03-13T05:46:57.391Z,6.30
2019-03-13T05:49:27.018Z,6.40
2019-03-13T05:51:56.854Z,6.40
2019-03-13T05:54:26.879Z,6.40
2019-03-13T05:56:57.026Z,6.40
2019-03-13T05:59:27.440Z,6.50
2019-03-13T06:01:56.917Z,6.50
2019-03-13T06:04:26.359Z,6.50
2019-03-13T06:06:55.748Z,6.50
2019-03-13T06:09:25.764Z,6.50
2019-03-13T06:11:55.123Z,6.50
2019-03-13T06:14:24.491Z,6.50
2019-03-13T06:16:53.863Z,6.60
2019-03-13T06:22:28.983Z,6.60
2019-03-13T06:25:00.463Z,6.60
2019-03-13T06:27:29.916Z,6.70
2019-03-13T06:29:59.424Z,6.70
2019-03-13T06:32:28.862Z,6.70
2019-03-13T06:35:01.241Z,6.70
2019-03-13T06:37:30.672Z,6.70
2019-03-13T06:40:00.510Z,6.80
2019-03-13T06:42:29.918Z,6.80
2019-03-13T06:44:59.826Z,6.80
2019-03-13T06:47:29.809Z,6.80
2019-03-13T06:49:59.211Z,6.80
2019-03-13T06:52:31.517Z,6.80
2019-03-13T06:54:59.691Z,6.90
2019-03-13T06:57:29.029Z,6.90
2019-03-13T07:00:16.086Z,6.90
2019-03-13T07:02:54.336Z,6.90
2019-03-13T07:05:32.999Z,7.00
2019-03-13T07:08:33.664Z,7.00
2019-03-13T07:11:25.246Z,7.10
2019-03-13T07:14:03.212Z,7.10
2019-03-13T07:16:58.742Z,7.20
2019-03-13T07:20:05.389Z,7.20
2019-03-13T07:22:48.287Z,7.20
2019-03-13T07:25:36.503Z,7.10
2019-03-13T07:28:22.004Z,7.10
2019-03-13T07:31:04.539Z,7.10
2019-03-13T07:33:52.790Z,7.00
2019-03-13T07:36:41.283Z,7.00
2019-03-13T07:39:28.657Z,7.00
2019-03-13T07:42:20.143Z,6.90
2019-03-13T07:45:04.079Z,6.90
2019-03-13T07:47:58.920Z,6.90
2019-03-13T07:53:49.330Z,6.90
2019-03-13T07:56:32.495Z,6.90
2019-03-13T07:59:27.300Z,6.90
2019-03-13T08:02:18.994Z,7.00
2019-03-13T08:05:06.518Z,7.00
2019-03-13T08:08:07.273Z,7.00
2019-03-13T08:11:14.142Z,7.00
2019-03-13T08:14:01.345Z,6.90
2019-03-13T08:19:54.272Z,6.90
2019-03-13T08:22:41.551Z,6.90
2019-03-13T08:25:18.184Z,6.90
2019-03-13T08:28:06.749Z,6.80
2019-03-13T08:30:53.671Z,6.90
2019-03-13T08:36:44.011Z,6.70
2019-03-13T08:39:44.703Z,6.70
2019-03-13T08:42:37.249Z,6.70
2019-03-13T08:45:22.857Z,6.50
2019-03-13T08:48:14.170Z,6.50
2019-03-13T08:50:59.165Z,6.50
2019-03-13T08:53:46.573Z,6.50
2019-03-13T08:56:50.254Z,6.60
2019-03-13T08:59:44.434Z,6.70
2019-03-13T09:02:23.324Z,6.60
2019-03-13T09:04:59.391Z,6.60
2019-03-13T09:08:19.060Z,6.60
2019-03-13T09:11:22.567Z,6.70
2019-03-13T09:14:01.553Z,6.70
2019-03-13T09:16:48.805Z,6.80
2019-03-13T09:19:48.951Z,6.90
2019-03-13T09:22:23.990Z,6.90
2019-03-13T09:25:18.157Z,7.00
2019-03-13T09:28:07.341Z,7.00
2019-03-13T09:31:01.460Z,7.10
2019-03-13T09:33:55.962Z,7.20
2019-03-13T09:36:35.122Z,7.30
2019-03-13T09:39:30.880Z,7.30
2019-03-13T09:42:08.150Z,7.30
2019-03-13T09:50:40.049Z,7.20
2019-03-13T09:53:17.117Z,7.30
2019-03-13T09:56:09.972Z,7.30
2019-03-13T09:58:59.746Z,7.30
2019-03-13T10:01:48.104Z,7.30
2019-03-13T10:04:30.963Z,7.30
2019-03-13T10:07:09.971Z,7.40
2019-03-13T10:09:58.092Z,7.50
2019-03-13T10:12:34.575Z,7.60
2019-03-13T10:15:23.599Z,7.70
2019-03-13T10:18:10.539Z,7.90
2019-03-13T10:21:07.613Z,8.10
2019-03-13T10:24:07.868Z,8.20
2019-03-13T10:26:45.941Z,8.20
2019-03-13T10:29:38.446Z,8.20
2019-03-13T10:32:26.872Z,8.30
2019-03-13T10:35:15.422Z,8.20
2019-03-13T10:38:13.652Z,8.20
2019-03-13T10:41:03.252Z,8.00
2019-03-13T10:43:39.858Z,7.90
2019-03-13T10:46:28.387Z,7.80
2019-03-13T10:49:23.785Z,7.70
2019-03-13T10:52:27.371Z,7.70
2019-03-13T10:55:18.265Z,7.70
2019-03-13T10:58:15.751Z,7.70
2019-03-13T11:01:11.585Z,7.80
2019-03-13T11:04:03.431Z,7.70
2019-03-13T11:07:07.118Z,7.50
2019-03-13T11:09:48.720Z,7.40
2019-03-13T11:12:48.664Z,7.20
2019-03-13T11:15:42.996Z,7.00
2019-03-13T11:18:25.889Z,6.90
2019-03-13T11:21:04.384Z,6.90
2019-03-13T11:23:51.402Z,6.90
2019-03-13T11:26:33.455Z,6.90
2019-03-13T11:29:20.819Z,6.90
2019-03-13T11:32:02.893Z,6.80
2019-03-13T11:34:41.583Z,6.80
2019-03-13T11:37:45.376Z,6.70
2019-03-13T11:40:39.647Z,6.70
2019-03-13T11:43:37.259Z,6.70
2019-03-13T11:46:21.959Z,6.70
2019-03-13T11:49:05.878Z,6.70
2019-03-13T11:52:12.709Z,6.80
2019-03-13T11:54:54.985Z,6.70
2019-03-13T11:57:49.317Z,6.70
2019-03-13T12:00:46.826Z,6.80
2019-03-13T12:03:38.380Z,6.80
2019-03-13T12:06:25.747Z,7.00
2019-03-13T12:09:08.413Z,7.00
2019-03-13T12:11:55.832Z,7.20
2019-03-13T12:14:42.373Z,7.30
2019-03-13T12:17:17.399Z,7.40
2019-03-13T12:19:53.275Z,7.40
2019-03-13T12:25:33.557Z,7.40
2019-03-13T12:28:36.801Z,7.30
2019-03-13T12:31:38.213Z,7.20
2019-03-13T12:34:26.315Z,7.10
2019-03-13T12:37:05.187Z,7.00
2019-03-13T12:39:57.286Z,7.10
2019-03-13T12:42:52.491Z,7.20
2019-03-13T12:45:36.264Z,7.30
2019-03-13T12:48:30.434Z,7.40
2019-03-13T12:51:16.772Z,7.30
2019-03-13T12:54:13.418Z,7.30
2019-03-13T12:57:08.900Z,7.40
2019-03-13T13:00:00.636Z,7.50
2019-03-13T13:02:49.002Z,7.50
2019-03-13T13:05:34.086Z,7.50
2019-03-13T13:08:31.777Z,7.50
2019-03-13T13:11:26.946Z,7.50
2019-03-13T13:17:21.567Z,7.50
2019-03-13T13:22:55.224Z,7.50
2019-03-13T13:25:22.154Z,7.50
2019-03-13T13:27:51.696Z,7.50
2019-03-13T13:30:20.989Z,7.50
2019-03-13T13:32:55.416Z,7.50
2019-03-13T13:35:25.236Z,7.40
2019-03-13T13:37:54.686Z,7.40
2019-03-13T13:40:25.583Z,7.40
2019-03-13T13:42:54.988Z,7.50
2019-03-13T13:45:44.145Z,7.50
2019-03-13T13:48:15.528Z,7.50
2019-03-13T13:50:49.180Z,7.50
2019-03-13T13:53:18.967Z,7.50
2019-03-13T13:55:48.934Z,7.40
2019-03-13T13:58:21.721Z,7.30
2019-03-13T14:00:51.473Z,7.30
2019-03-13T14:03:27.513Z,7.30
2019-03-13T14:06:10.103Z,7.50
2019-03-13T14:08:44.803Z,7.70
2019-03-13T14:16:37.794Z,8.40
2019-03-13T14:19:08.761Z,8.60
2019-03-13T14:21:38.349Z,8.60
2019-03-13T14:24:10.971Z,8.70
2019-03-13T14:26:41.688Z,8.90
2019-03-13T14:32:17.156Z,8.70
2019-03-13T14:34:53.915Z,8.60
2019-03-13T14:37:23.810Z,8.50
2019-03-13T14:39:53.719Z,8.30
2019-03-13T14:42:23.351Z,8.20
2019-03-13T14:44:53.007Z,8.10
2019-03-13T14:47:22.641Z,8.00
2019-03-13T14:49:52.559Z,7.90
2019-03-13T14:52:22.399Z,7.80
2019-03-13T14:54:52.074Z,7.80
2019-03-13T14:57:24.018Z,7.80
2019-03-13T14:59:54.162Z,7.80
2019-03-13T15:02:24.172Z,7.90
2019-03-13T15:04:54.762Z,8.00
2019-03-13T15:07:24.600Z,8.10
2019-03-13T15:09:55.884Z,8.30
2019-03-13T15:20:53.605Z,8.30
2019-03-13T15:23:23.361Z,8.20
2019-03-13T15:25:53.473Z,8.00
2019-03-13T15:28:24.638Z,7.80
2019-03-13T15:30:56.221Z,7.80
2019-03-13T15:33:25.613Z,7.70
2019-03-13T15:35:55.012Z,7.80
2019-03-13T15:38:24.285Z,7.80
2019-03-13T15:40:53.705Z,7.70
2019-03-13T15:43:23.107Z,7.70
2019-03-13T15:45:52.476Z,7.60
2019-03-13T15:48:21.774Z,7.70
2019-03-13T15:50:51.184Z,7.80
2019-03-13T15:53:20.510Z,7.90
2019-03-13T15:55:50.140Z,8.00
2019-03-13T15:58:19.514Z,8.20
2019-03-13T16:00:54.090Z,8.30
2019-03-13T16:03:23.539Z,8.50
2019-03-13T16:05:52.877Z,8.60
2019-03-13T16:08:22.681Z,8.80
2019-03-13T16:10:52.103Z,9.20
2019-03-13T16:13:21.743Z,9.20
2019-03-13T16:15:51.104Z,9.20
2019-03-13T16:18:20.499Z,9.10
2019-03-13T16:20:49.909Z,9.10
2019-03-13T16:23:19.316Z,9.00
2019-03-13T16:25:48.634Z,9.00
2019-03-13T16:28:17.988Z,9.00
2019-03-13T16:30:47.639Z,9.00
2019-03-13T16:33:17.044Z,9.00
2019-03-13T16:35:46.265Z,9.00
2019-03-13T16:38:15.581Z,9.00
2019-03-13T16:40:45.003Z,9.00
2019-03-13T16:43:14.360Z,9.00
2019-03-13T16:45:43.744Z,9.00
2019-03-13T16:48:13.153Z,9.00
2019-03-13T16:50:42.502Z,9.00
2019-03-13T16:53:11.884Z,9.00
2019-03-13T16:55:41.233Z,9.00
2019-03-13T16:58:10.597Z,9.00
2019-03-13T17:00:41.000Z,9.00
2019-03-13T17:03:10.523Z,9.00
2019-03-13T17:05:39.844Z,9.00
2019-03-13T17:08:09.763Z,9.00
2019-03-13T17:10:39.177Z,9.00
2019-03-13T17:13:08.529Z,9.00
2019-03-13T17:15:37.944Z,9.00
2019-03-13T17:18:07.167Z,9.00
2019-03-13T17:20:36.616Z,9.00
2019-03-13T17:23:05.972Z,9.00
2019-03-13T17:25:37.647Z,9.00
2019-03-13T17:28:07.108Z,9.00
2019-03-13T17:30:36.588Z,9.00
2019-03-13T17:33:07.278Z,9.00
2019-03-13T17:35:36.781Z,9.00
2019-03-13T17:38:06.220Z,9.00
2019-03-13T17:40:36.077Z,9.00
2019-03-13T17:43:05.560Z,9.00
2019-03-13T17:45:37.631Z,8.90
2019-03-13T17:48:07.483Z,8.90
2019-03-13T17:50:36.835Z,8.80
2019-03-13T17:53:06.279Z,8.80
2019-03-13T17:55:35.674Z,8.80
2019-03-13T17:58:05.041Z,8.80
2019-03-13T18:00:46.410Z,8.80
2019-03-13T18:03:15.732Z,8.70
2019-03-13T18:05:45.151Z,8.70
2019-03-13T18:08:14.456Z,8.70
2019-03-13T18:10:43.851Z,8.70
2019-03-13T18:13:13.268Z,8.70
2019-03-13T18:15:42.770Z,8.60
2019-03-13T18:18:12.172Z,8.60
2019-03-13T18:20:41.604Z,8.60
2019-03-13T18:23:10.997Z,8.60
2019-03-13T18:25:41.998Z,8.50
2019-03-13T18:28:11.453Z,8.60
2019-03-13T18:30:40.850Z,8.50
2019-03-13T18:33:10.227Z,8.50
2019-03-13T18:35:39.515Z,8.50
2019-03-13T18:38:08.823Z,8.40
2019-03-13T18:40:38.228Z,8.40
2019-03-13T18:43:07.504Z,8.30
2019-03-13T18:45:36.912Z,8.30
2019-03-13T18:48:06.253Z,8.20
2019-03-13T18:50:35.526Z,8.10
2019-03-13T18:53:06.887Z,8.10
2019-03-13T18:55:36.269Z,8.10
2019-03-13T18:58:05.682Z,8.10
2019-03-13T19:00:35.075Z,8.00
2019-03-13T19:03:04.883Z,7.90
2019-03-13T19:05:34.270Z,7.90
2019-03-13T19:08:03.731Z,7.80
2019-03-13T19:10:33.205Z,7.80
2019-03-13T19:13:02.483Z,7.80
2019-03-13T19:15:31.965Z,7.80
2019-03-13T19:18:01.604Z,7.80
2019-03-13T19:20:31.277Z,7.70
2019-03-13T19:23:00.701Z,7.80
2019-03-13T19:25:30.197Z,7.70
2019-03-13T19:27:59.626Z,7.70
2019-03-13T19:30:30.119Z,7.70
2019-03-13T19:32:59.758Z,7.70
2019-03-13T19:35:29.233Z,7.70
2019-03-13T19:37:58.859Z,7.70
2019-03-13T19:40:28.146Z,7.60
2019-03-13T19:42:57.476Z,7.60
2019-03-13T19:45:29.664Z,7.60
2019-03-13T19:48:01.318Z,7.60
2019-03-13T19:50:30.015Z,7.50
2019-03-13T19:52:59.478Z,7.50
2019-03-13T19:55:28.871Z,7.50
2019-03-13T19:57:59.570Z,7.40
2019-03-13T20:00:29.994Z,7.40
2019-03-13T20:03:00.687Z,7.40
2019-03-13T20:05:30.409Z,7.40
2019-03-13T20:08:02.585Z,7.40
2019-03-13T20:10:32.021Z,7.30
2019-03-13T20:13:01.711Z,7.40
2019-03-13T20:15:31.355Z,7.30
2019-03-13T20:18:01.872Z,7.40
2019-03-13T20:20:31.334Z,7.30
2019-03-13T20:23:01.592Z,7.40
2019-03-13T20:25:31.110Z,7.40
2019-03-13T20:28:01.439Z,7.40
2019-03-13T20:30:31.120Z,7.40
2019-03-13T20:33:00.532Z,7.40
2019-03-13T20:35:37.020Z,7.40
2019-03-13T20:38:06.698Z,7.40
2019-03-13T20:40:36.127Z,7.40
2019-03-13T20:43:05.487Z,7.30
2019-03-13T20:45:34.937Z,7.30
2019-03-13T20:48:05.420Z,7.30
2019-03-13T20:50:37.838Z,7.30
2019-03-13T20:53:06.140Z,7.30
2019-03-13T20:55:35.781Z,7.30
2019-03-13T20:58:05.273Z,7.30
2019-03-13T21:00:35.143Z,7.20
2019-03-13T21:03:05.357Z,7.20
2019-03-13T21:05:34.847Z,7.20
2019-03-13T21:08:04.714Z,7.20
2019-03-13T21:10:34.586Z,7.10
2019-03-13T21:13:04.089Z,7.10
2019-03-13T21:15:33.557Z,7.00
2019-03-13T21:18:05.025Z,7.00
2019-03-13T21:20:36.484Z,7.00
2019-03-13T21:23:06.431Z,7.00
2019-03-13T21:25:35.824Z,7.00
2019-03-13T21:28:05.542Z,7.10
2019-03-13T21:30:35.213Z,7.10
2019-03-13T21:33:04.545Z,7.20
2019-03-13T21:35:33.933Z,7.20
2019-03-13T21:38:03.370Z,7.20
2019-03-13T21:40:32.849Z,7.20
2019-03-13T21:43:02.339Z,7.20
2019-03-13T21:45:41.073Z,7.20
2019-03-13T21:48:02.782Z,7.20
2019-03-13T21:50:32.381Z,7.20
2019-03-13T21:53:03.338Z,7.20
2019-03-13T21:55:33.086Z,7.10
2019-03-13T21:58:04.632Z,7.10
2019-03-13T22:00:39.957Z,7.10
2019-03-13T22:03:11.921Z,7.00
2019-03-13T22:05:41.282Z,7.10
2019-03-13T22:08:12.153Z,7.00
2019-03-13T22:10:41.556Z,7.00
2019-03-13T22:13:10.963Z,7.00
2019-03-13T22:15:40.373Z,7.00
2019-03-13T22:18:09.786Z,7.00
2019-03-13T22:20:39.167Z,7.00
2019-03-13T22:23:08.801Z,7.00
2019-03-13T22:25:38.955Z,7.00
2019-03-13T22:28:08.336Z,7.00
2019-03-13T22:30:37.777Z,7.00
2019-03-13T22:33:07.152Z,7.10
2019-03-13T22:35:36.493Z,7.10
2019-03-13T22:38:05.918Z,7.10
2019-03-13T22:40:35.236Z,7.20
2019-03-13T22:43:04.577Z,7.20
2019-03-13T22:45:36.684Z,7.20
2019-03-13T22:48:06.036Z,7.20
2019-03-13T22:50:35.437Z,7.20
2019-03-13T22:53:04.842Z,7.30
2019-03-13T22:55:34.196Z,7.30
2019-03-13T22:58:03.585Z,7.30
2019-03-13T23:00:58.684Z,7.30
2019-03-13T23:03:29.902Z,7.30
2019-03-13T23:05:59.663Z,7.40
2019-03-13T23:08:31.170Z,7.40
2019-03-13T23:11:00.144Z,7.30
2019-03-13T23:13:31.571Z,7.30
2019-03-13T23:16:00.975Z,7.30
2019-03-13T23:18:30.339Z,7.30
2019-03-13T23:20:59.711Z,7.30
2019-03-13T23:26:34.774Z,7.30
2019-03-13T23:29:04.106Z,7.30
2019-03-13T23:31:33.488Z,7.40
2019-03-13T23:34:02.904Z,7.30
2019-03-13T23:36:32.307Z,7.30
2019-03-13T23:39:01.633Z,7.30
2019-03-13T23:41:31.545Z,7.30
2019-03-13T23:44:00.924Z,7.30
2019-03-13T23:46:30.237Z,7.30
2019-03-13T23:49:02.535Z,7.30
2019-03-13T23:51:31.910Z,7.30
2019-03-13T23:54:01.219Z,7.40
2019-03-13T23:56:30.569Z,7.40
2019-03-13T23:59:01.315Z,7.40
